createdAt,value
2018-05-01T00:01:33.518Z,98623.95
2018-05-01T00:06:37.973Z,98627.94
2018-05-01T00:09:07.160Z,98634.36
2018-05-01T00:11:36.394Z,98633.92
2018-05-01T00:14:05.589Z,98630.94
2018-05-01T00:16:34.789Z,98629.22
2018-05-01T00:21:43.922Z,98630.69
2018-05-01T00:24:13.193Z,98636.94
2018-05-01T00:26:43.197Z,98633.82
2018-05-01T00:29:13.157Z,98633.80
2018-05-01T00:31:42.359Z,98634.61
2018-05-01T00:34:11.577Z,98637.47
2018-05-01T00:36:40.782Z,98628.48
2018-05-01T00:39:10.014Z,98647.58
2018-05-01T00:41:40.019Z,98652.53
2018-05-01T00:44:09.973Z,98649.85
2018-05-01T00:46:39.221Z,98662.09
2018-05-01T00:49:08.442Z,98663.19
2018-05-01T00:51:37.615Z,98663.13
2018-05-01T00:54:06.839Z,98666.50
2018-05-01T00:56:36.072Z,98666.11
2018-05-01T00:59:05.290Z,98665.31
2018-05-01T01:01:35.286Z,98669.19
2018-05-01T01:04:04.493Z,98661.80
2018-05-01T01:06:33.695Z,98681.29
2018-05-01T01:09:02.904Z,98682.97
2018-05-01T01:11:32.110Z,98677.98
2018-05-01T01:14:01.686Z,98685.69
2018-05-01T01:16:30.930Z,98694.78
2018-05-01T01:19:00.097Z,98678.73
2018-05-01T01:21:29.293Z,98686.37
2018-05-01T01:23:58.515Z,98688.27
2018-05-01T01:26:28.476Z,98691.09
2018-05-01T01:28:57.690Z,98685.64
2018-05-01T01:31:26.868Z,98694.00
2018-05-01T01:33:56.105Z,98704.63
2018-05-01T01:36:24.458Z,98707.30
2018-05-01T01:38:52.790Z,98698.66
2018-05-01T01:41:21.907Z,98708.73
2018-05-01T01:43:50.293Z,98705.64
2018-05-01T01:46:18.651Z,98708.73
2018-05-01T01:48:47.023Z,98708.77
2018-05-01T01:51:16.141Z,98712.89
2018-05-01T01:53:44.498Z,98705.14
2018-05-01T01:56:13.628Z,98727.09
2018-05-01T01:58:42.095Z,98718.59
2018-05-01T02:01:10.445Z,98719.55
2018-05-01T02:03:39.570Z,98728.37
2018-05-01T02:06:07.934Z,98729.95
2018-05-01T02:08:36.310Z,98732.97
2018-05-01T02:11:04.699Z,98735.11
2018-05-01T02:13:33.769Z,98731.06
2018-05-01T02:16:02.873Z,98733.98
2018-05-01T02:18:31.230Z,98740.33
2018-05-01T02:21:00.528Z,98737.58
2018-05-01T02:23:28.858Z,98743.98
2018-05-01T02:25:57.249Z,98747.75
2018-05-01T02:28:25.790Z,98745.95
2018-05-01T02:30:54.141Z,98747.06
2018-05-01T02:33:22.506Z,98746.67
2018-05-01T02:35:50.867Z,98748.25
2018-05-01T02:38:19.218Z,98748.47
2018-05-01T02:40:47.592Z,98747.85
2018-05-01T02:43:15.955Z,98752.74
2018-05-01T02:45:45.069Z,98759.75
2018-05-01T02:48:13.431Z,98762.34
2018-05-01T02:50:41.786Z,98763.79
2018-05-01T02:53:10.190Z,98762.12
2018-05-01T02:55:38.533Z,98765.12
2018-05-01T02:58:06.899Z,98777.57
2018-05-01T03:00:35.273Z,98765.55
2018-05-01T03:03:03.608Z,98781.48
2018-05-01T03:05:31.979Z,98781.78
2018-05-01T03:08:00.371Z,98781.55
2018-05-01T03:10:28.725Z,98789.92
2018-05-01T03:12:57.085Z,98779.50
2018-05-01T03:15:25.503Z,98786.00
2018-05-01T03:17:53.845Z,98793.76
2018-05-01T03:20:23.065Z,98786.30
2018-05-01T03:22:51.439Z,98794.88
2018-05-01T03:25:19.905Z,98796.22
2018-05-01T03:27:48.196Z,98800.33
2018-05-01T03:30:16.590Z,98798.19
2018-05-01T03:32:44.949Z,98795.70
2018-05-01T03:35:13.299Z,98795.87
2018-05-01T03:37:41.682Z,98800.09
2018-05-01T03:40:10.198Z,98803.81
2018-05-01T03:42:39.305Z,98806.34
2018-05-01T03:45:07.666Z,98808.24
2018-05-01T03:47:36.037Z,98808.58
2018-05-01T03:50:04.390Z,98812.66
2018-05-01T03:52:33.525Z,98814.73
2018-05-01T03:55:01.877Z,98823.86
2018-05-01T03:57:30.242Z,98817.06
2018-05-01T03:59:59.361Z,98828.52
2018-05-01T04:02:27.705Z,98829.48
2018-05-01T04:04:56.056Z,98837.63
2018-05-01T04:07:24.404Z,98844.59
2018-05-01T04:09:52.750Z,98839.92
2018-05-01T04:12:21.882Z,98848.75
2018-05-01T04:14:51.069Z,98848.16
2018-05-01T04:17:19.513Z,98851.84
2018-05-01T04:19:47.866Z,98860.39
2018-05-01T04:22:16.209Z,98857.76
2018-05-01T04:24:44.601Z,98864.82
2018-05-01T04:27:12.950Z,98868.70
2018-05-01T04:29:41.319Z,98874.09
2018-05-01T04:32:10.443Z,98885.19
2018-05-01T04:34:38.805Z,98884.61
2018-05-01T04:37:07.146Z,98892.00
2018-05-01T04:39:35.508Z,98895.11
2018-05-01T04:42:03.856Z,98899.91
2018-05-01T04:44:32.467Z,98901.42
2018-05-01T04:47:00.879Z,98910.75
2018-05-01T04:49:30.001Z,98917.06
2018-05-01T04:51:58.373Z,98923.86
2018-05-01T04:54:26.749Z,98923.14
2018-05-01T04:56:55.113Z,98925.90
2018-05-01T04:59:23.473Z,98934.25
2018-05-01T05:01:51.846Z,98929.72
2018-05-01T05:04:20.225Z,98953.18
2018-05-01T05:06:48.574Z,98937.23
2018-05-01T05:09:16.930Z,98948.34
2018-05-01T05:11:45.314Z,98952.36
2018-05-01T05:14:13.670Z,98958.38
2018-05-01T05:16:42.027Z,98958.24
2018-05-01T05:19:11.174Z,98961.23
2018-05-01T05:21:39.538Z,98968.36
2018-05-01T05:24:07.875Z,98977.41
2018-05-01T05:26:37.034Z,98982.01
2018-05-01T05:29:05.377Z,98977.89
2018-05-01T05:31:33.781Z,98988.44
2018-05-01T05:34:02.152Z,98988.18
2018-05-01T05:36:30.516Z,98998.66
2018-05-01T05:38:59.635Z,99001.73
2018-05-01T05:41:28.013Z,98994.20
2018-05-01T05:43:56.361Z,98994.92
2018-05-01T05:46:24.762Z,99005.70
2018-05-01T05:48:53.154Z,99001.17
2018-05-01T05:51:21.501Z,99015.91
2018-05-01T05:53:50.797Z,99012.27
2018-05-01T05:56:19.174Z,99027.95
2018-05-01T05:58:47.545Z,99025.19
2018-05-01T06:01:15.898Z,99019.37
2018-05-01T06:03:44.271Z,99034.66
2018-05-01T06:06:13.415Z,99026.34
2018-05-01T06:08:41.776Z,99027.46
2018-05-01T06:11:10.118Z,99042.13
2018-05-01T06:13:38.568Z,99034.89
2018-05-01T06:16:06.851Z,99059.00
2018-05-01T06:18:35.222Z,99061.38
2018-05-01T06:21:03.991Z,99057.56
2018-05-01T06:23:33.091Z,99069.59
2018-05-01T06:26:01.448Z,99082.95
2018-05-01T06:28:29.830Z,99082.23
2018-05-01T06:30:58.187Z,99079.06
2018-05-01T06:33:26.587Z,99081.92
2018-05-01T06:35:54.955Z,99086.37
2018-05-01T06:38:23.312Z,99089.13
2018-05-01T06:40:52.445Z,99101.34
2018-05-01T06:43:20.811Z,99102.30
2018-05-01T06:45:49.151Z,99107.11
2018-05-01T06:48:17.486Z,99116.39
2018-05-01T06:50:45.943Z,99118.98
2018-05-01T06:53:14.258Z,99119.45
2018-05-01T06:55:42.618Z,99123.34
2018-05-01T06:58:11.080Z,99138.08
2018-05-01T07:00:39.444Z,99153.16
2018-05-01T07:03:07.815Z,99139.10
2018-05-01T07:05:36.965Z,99151.97
2018-05-01T07:08:05.319Z,99146.51
2018-05-01T07:10:33.695Z,99153.29
2018-05-01T07:13:02.076Z,99160.44
2018-05-01T07:15:30.470Z,99161.85
2018-05-01T07:17:58.830Z,99164.55
2018-05-01T07:20:27.192Z,99170.34
2018-05-01T07:22:55.558Z,99179.49
2018-05-01T07:25:24.771Z,99176.72
2018-05-01T07:27:53.165Z,99174.52
2018-05-01T07:30:21.546Z,99172.05
2018-05-01T07:32:49.911Z,99184.36
2018-05-01T07:35:18.276Z,99179.82
2018-05-01T07:37:46.609Z,99180.75
2018-05-01T07:40:15.002Z,99181.44
2018-05-01T07:42:44.130Z,99189.34
2018-05-01T07:45:12.593Z,99190.03
2018-05-01T07:47:41.002Z,99175.13
2018-05-01T07:50:09.397Z,99183.30
2018-05-01T07:52:37.768Z,99186.45
2018-05-01T07:55:06.206Z,99196.87
2018-05-01T07:57:34.561Z,99205.38
2018-05-01T08:00:02.905Z,99203.17
2018-05-01T08:02:31.265Z,99218.27
2018-05-01T08:04:59.631Z,99213.75
2018-05-01T08:07:27.994Z,99227.21
2018-05-01T08:09:56.333Z,99211.84
2018-05-01T08:12:24.700Z,99224.00
2018-05-01T08:14:53.053Z,99218.98
2018-05-01T08:17:21.422Z,99222.36
2018-05-01T08:19:49.813Z,99227.69
2018-05-01T08:22:18.217Z,99227.66
2018-05-01T08:24:46.581Z,99228.06
2018-05-01T08:27:14.950Z,99240.97
2018-05-01T08:29:43.343Z,99243.41
2018-05-01T08:32:11.732Z,99252.80
2018-05-01T08:34:40.141Z,99259.21
2018-05-01T08:37:08.469Z,99267.68
2018-05-01T08:39:36.922Z,99265.94
2018-05-01T08:42:05.275Z,99262.44
2018-05-01T08:44:34.421Z,99281.93
2018-05-01T08:47:02.784Z,99276.23
2018-05-01T08:49:31.187Z,99289.20
2018-05-01T08:51:59.556Z,99294.80
2018-05-01T08:54:27.918Z,99290.97
2018-05-01T08:56:56.288Z,99299.21
2018-05-01T08:59:24.679Z,99312.36
2018-05-01T09:01:53.060Z,99308.13
2018-05-01T09:04:21.449Z,99302.34
2018-05-01T09:06:49.805Z,99304.77
2018-05-01T09:09:18.178Z,99297.70
2018-05-01T09:11:46.554Z,99318.67
2018-05-01T09:14:14.950Z,99312.85
2018-05-01T09:16:43.312Z,99326.59
2018-05-01T09:19:11.741Z,99326.30
2018-05-01T09:21:40.100Z,99333.80
2018-05-01T09:24:08.478Z,99329.73
2018-05-01T09:26:36.855Z,99338.82
2018-05-01T09:29:05.222Z,99327.16
2018-05-01T09:31:33.706Z,99323.05
2018-05-01T09:34:02.093Z,99327.13
2018-05-01T09:36:30.496Z,99336.67
2018-05-01T09:38:58.871Z,99341.41
2018-05-01T09:41:28.007Z,99343.13
2018-05-01T09:43:56.366Z,99344.13
2018-05-01T09:46:25.566Z,99351.70
2018-05-01T09:48:54.682Z,99358.00
2018-05-01T09:51:23.990Z,99353.80
2018-05-01T09:53:53.235Z,99358.17
2018-05-01T09:56:22.448Z,99363.48
2018-05-01T09:58:52.491Z,99365.80
2018-05-01T10:01:22.548Z,99372.20
2018-05-01T10:03:51.786Z,99384.88
2018-05-01T10:06:21.761Z,99381.37
2018-05-01T10:08:51.230Z,99376.50
2018-05-01T10:11:20.509Z,99369.89
2018-05-01T10:13:49.756Z,99393.94
2018-05-01T10:16:18.978Z,99389.59
2018-05-01T10:18:48.580Z,99401.95
2018-05-01T10:21:17.806Z,99388.68
2018-05-01T10:23:47.854Z,99388.06
2018-05-01T10:26:17.091Z,99384.16
2018-05-01T10:28:46.387Z,99380.77
2018-05-01T10:31:15.636Z,99395.42
2018-05-01T10:33:45.629Z,99383.53
2018-05-01T10:36:15.602Z,99392.98
2018-05-01T10:38:44.968Z,99397.19
2018-05-01T10:41:14.166Z,99394.97
2018-05-01T10:43:43.470Z,99403.12
2018-05-01T10:46:12.715Z,99403.27
2018-05-01T10:48:41.937Z,99415.55
2018-05-01T10:51:11.943Z,99408.27
2018-05-01T10:53:41.177Z,99416.55
2018-05-01T10:56:10.413Z,99414.19
2018-05-01T10:58:39.676Z,99418.96
2018-05-01T11:01:08.932Z,99425.48
2018-05-01T11:03:38.150Z,99421.95
2018-05-01T11:06:07.464Z,99419.45
2018-05-01T11:08:36.681Z,99430.86
2018-05-01T11:11:05.924Z,99427.67
2018-05-01T11:13:35.522Z,99433.66
2018-05-01T11:16:04.730Z,99439.17
2018-05-01T11:18:33.989Z,99447.23
2018-05-01T11:21:03.244Z,99444.95
2018-05-01T11:23:33.257Z,99451.97
2018-05-01T11:26:03.284Z,99453.48
2018-05-01T11:28:32.583Z,99457.23
2018-05-01T11:31:01.754Z,99454.59
2018-05-01T11:33:31.056Z,99456.82
2018-05-01T11:36:00.239Z,99446.84
2018-05-01T11:38:29.494Z,99459.49
2018-05-01T11:40:58.765Z,99467.52
2018-05-01T11:43:28.790Z,99455.88
2018-05-01T11:45:57.997Z,99465.97
2018-05-01T11:48:27.233Z,99471.78
2018-05-01T11:50:56.505Z,99481.59
2018-05-01T11:53:25.754Z,99481.05
2018-05-01T11:55:54.989Z,99485.74
2018-05-01T11:58:24.267Z,99478.39
2018-05-01T12:00:54.259Z,99484.22
2018-05-01T12:03:23.480Z,99493.67
2018-05-01T12:05:53.473Z,99483.17
2018-05-01T12:08:23.472Z,99485.42
2018-05-01T12:10:52.779Z,99488.45
2018-05-01T12:13:22.052Z,99484.70
2018-05-01T12:15:51.302Z,99491.84
2018-05-01T12:18:20.571Z,99490.99
2018-05-01T12:20:49.794Z,99490.92
2018-05-01T12:23:19.063Z,99498.05
2018-05-01T12:25:48.331Z,99491.46
2018-05-01T12:28:17.590Z,99495.05
2018-05-01T12:30:46.859Z,99499.09
2018-05-01T12:33:16.123Z,99507.69
2018-05-01T12:35:45.363Z,99500.77
2018-05-01T12:38:14.641Z,99515.02
2018-05-01T12:40:43.915Z,99514.80
2018-05-01T12:43:13.883Z,99517.45
2018-05-01T12:45:43.134Z,99512.67
2018-05-01T12:48:13.189Z,99506.21
2018-05-01T12:50:42.390Z,99503.19
2018-05-01T12:53:11.595Z,99505.48
2018-05-01T12:55:40.837Z,99514.33
2018-05-01T12:58:10.082Z,99514.27
2018-05-01T13:00:39.325Z,99515.16
2018-05-01T13:03:08.592Z,99514.45
2018-05-01T13:05:37.841Z,99513.70
2018-05-01T13:08:07.071Z,99507.30
2018-05-01T13:10:36.342Z,99509.15
2018-05-01T13:13:05.583Z,99508.88
2018-05-01T13:15:34.830Z,99513.13
2018-05-01T13:18:04.092Z,99515.58
2018-05-01T13:20:34.118Z,99510.33
2018-05-01T13:23:03.318Z,99508.17
2018-05-01T13:25:32.532Z,99518.28
2018-05-01T13:28:01.810Z,99524.77
2018-05-01T13:30:31.023Z,99524.55
2018-05-01T13:33:01.027Z,99519.34
2018-05-01T13:35:31.067Z,99517.42
2018-05-01T13:38:00.342Z,99515.76
2018-05-01T13:40:29.559Z,99519.09
2018-05-01T13:42:58.823Z,99519.55
2018-05-01T13:45:28.078Z,99523.52
2018-05-01T13:47:57.277Z,99534.02
2018-05-01T13:50:26.536Z,99534.86
2018-05-01T13:52:55.740Z,99536.95
2018-05-01T13:55:24.989Z,99542.86
2018-05-01T13:57:54.234Z,99548.19
2018-05-01T14:00:23.490Z,99545.89
2018-05-01T14:02:52.670Z,99549.33
2018-05-01T14:05:21.936Z,99547.02
2018-05-01T14:07:51.947Z,99553.36
2018-05-01T14:10:21.192Z,99553.52
2018-05-01T14:12:50.462Z,99553.17
2018-05-01T14:15:19.741Z,99557.88
2018-05-01T14:17:48.935Z,99558.45
2018-05-01T14:20:19.009Z,99563.19
2018-05-01T14:22:49.078Z,99561.80
2018-05-01T14:25:18.426Z,99566.16
2018-05-01T14:27:47.613Z,99557.85
2018-05-01T14:30:16.856Z,99558.13
2018-05-01T14:32:46.073Z,99566.13
2018-05-01T14:35:15.407Z,99559.97
2018-05-01T14:37:44.639Z,99565.77
2018-05-01T14:40:13.872Z,99570.62
2018-05-01T14:42:43.084Z,99572.64
2018-05-01T14:45:13.269Z,99570.65
2018-05-01T14:47:43.366Z,99574.05
2018-05-01T14:50:12.970Z,99575.17
2018-05-01T14:52:42.206Z,99579.75
2018-05-01T14:55:12.193Z,99576.59
2018-05-01T14:57:41.419Z,99576.80
2018-05-01T15:00:11.467Z,99574.83
2018-05-01T15:02:52.401Z,99581.91
2018-05-01T15:05:21.618Z,99582.65
2018-05-01T15:07:51.859Z,99595.11
2018-05-01T15:10:21.077Z,99591.38
2018-05-01T15:12:50.533Z,99585.32
2018-05-01T15:15:20.527Z,99583.34
2018-05-01T15:17:49.781Z,99587.41
2018-05-01T15:20:18.992Z,99585.75
2018-05-01T15:22:48.258Z,99598.21
2018-05-01T15:25:17.481Z,99596.20
2018-05-01T15:27:46.673Z,99598.78
2018-05-01T15:30:16.031Z,99595.58
2018-05-01T15:32:45.966Z,99596.00
2018-05-01T15:35:15.245Z,99591.73
2018-05-01T15:37:45.269Z,99594.09
2018-05-01T15:40:15.306Z,99594.61
2018-05-01T15:42:44.565Z,99584.72
2018-05-01T15:45:13.884Z,99599.92
2018-05-01T15:47:43.171Z,99600.05
2018-05-01T15:50:12.433Z,99594.64
2018-05-01T15:52:41.677Z,99592.61
2018-05-01T15:55:10.943Z,99588.73
2018-05-01T15:57:40.150Z,99604.53
2018-05-01T16:00:09.446Z,99604.37
2018-05-01T16:02:39.914Z,99603.67
2018-05-01T16:05:09.168Z,99599.97
2018-05-01T16:07:38.468Z,99596.29
2018-05-01T16:10:07.758Z,99605.37
2018-05-01T16:12:36.991Z,99600.11
2018-05-01T16:15:06.244Z,99602.09
2018-05-01T16:17:35.812Z,99604.14
2018-05-01T16:20:05.045Z,99607.19
2018-05-01T16:22:35.081Z,99604.56
2018-05-01T16:25:04.323Z,99607.83
2018-05-01T16:27:33.603Z,99596.23
2018-05-01T16:30:03.618Z,99594.75
2018-05-01T16:32:33.613Z,99597.98
2018-05-01T16:35:02.820Z,99590.26
2018-05-01T16:37:32.037Z,99594.00
2018-05-01T16:40:02.070Z,99593.05
2018-05-01T16:42:31.320Z,99592.83
2018-05-01T16:45:00.521Z,99591.75
2018-05-01T16:47:29.800Z,99594.45
2018-05-01T16:49:58.999Z,99593.69
2018-05-01T16:52:28.234Z,99589.30
2018-05-01T16:54:57.460Z,99586.23
2018-05-01T16:57:27.469Z,99592.59
2018-05-01T16:59:57.435Z,99586.22
2018-05-01T17:02:26.648Z,99576.28
2018-05-01T17:04:55.878Z,99580.77
2018-05-01T17:07:25.394Z,99579.86
2018-05-01T17:09:54.703Z,99585.74
2018-05-01T17:12:23.927Z,99587.32
2018-05-01T17:14:53.146Z,99594.10
2018-05-01T17:17:22.394Z,99601.67
2018-05-01T17:19:51.644Z,99602.89
2018-05-01T17:22:21.101Z,99606.05
2018-05-01T17:24:50.443Z,99605.98
2018-05-01T17:27:19.759Z,99596.52
2018-05-01T17:29:49.844Z,99605.23
2018-05-01T17:32:19.103Z,99612.31
2018-05-01T17:34:49.235Z,99612.05
2018-05-01T17:37:18.457Z,99606.86
2018-05-01T17:39:47.693Z,99609.19
2018-05-01T17:42:16.883Z,99615.70
2018-05-01T17:44:46.909Z,99621.91
2018-05-01T17:47:16.666Z,99616.46
2018-05-01T17:49:45.925Z,99619.97
2018-05-01T17:52:15.952Z,99618.15
2018-05-01T17:54:46.008Z,99622.13
2018-05-01T17:57:15.254Z,99631.36
2018-05-01T17:59:45.289Z,99626.86
2018-05-01T18:02:14.516Z,99629.09
2018-05-01T18:04:43.850Z,99641.41
2018-05-01T18:07:13.095Z,99645.03
2018-05-01T18:09:42.427Z,99640.55
2018-05-01T18:12:11.701Z,99643.45
2018-05-01T18:14:40.933Z,99639.10
2018-05-01T18:17:10.178Z,99642.77
2018-05-01T18:19:39.388Z,99636.41
2018-05-01T18:22:09.110Z,99639.70
2018-05-01T18:24:38.968Z,99644.23
2018-05-01T18:27:08.240Z,99643.50
2018-05-01T18:29:38.165Z,99645.30
2018-05-01T18:32:08.097Z,99644.66
2018-05-01T18:34:37.396Z,99654.02
2018-05-01T18:37:06.643Z,99650.73
2018-05-01T18:39:35.894Z,99652.40
2018-05-01T18:42:05.100Z,99659.42
2018-05-01T18:44:35.166Z,99652.56
2018-05-01T18:47:05.653Z,99658.27
2018-05-01T18:49:35.666Z,99663.03
2018-05-01T18:52:05.787Z,99660.30
2018-05-01T18:54:35.804Z,99664.30
2018-05-01T18:57:05.803Z,99659.14
2018-05-01T18:59:35.044Z,99664.99
2018-05-01T19:02:04.317Z,99668.52
2018-05-01T19:04:34.316Z,99674.27
2018-05-01T19:07:04.313Z,99666.72
2018-05-01T19:09:33.562Z,99672.23
2018-05-01T19:12:02.766Z,99677.13
2018-05-01T19:14:32.251Z,99681.23
2018-05-01T19:17:02.121Z,99679.31
2018-05-01T19:19:31.415Z,99676.23
2018-05-01T19:22:00.593Z,99679.30
2018-05-01T19:24:29.849Z,99681.02
2018-05-01T19:26:59.315Z,99693.23
2018-05-01T19:29:29.378Z,99693.12
2018-05-01T19:31:59.385Z,99696.09
2018-05-01T19:34:29.412Z,99690.35
2018-05-01T19:36:58.779Z,99689.67
2018-05-01T19:39:28.031Z,99695.73
2018-05-01T19:41:57.314Z,99688.88
2018-05-01T19:44:27.290Z,99695.61
2018-05-01T19:46:56.538Z,99694.50
2018-05-01T19:49:25.838Z,99702.44
2018-05-01T19:51:55.591Z,99703.40
2018-05-01T19:54:24.817Z,99699.44
2018-05-01T19:56:54.817Z,99698.49
2018-05-01T19:59:25.611Z,99697.92
2018-05-01T20:01:54.838Z,99701.18
2018-05-01T20:04:24.163Z,99698.26
2018-05-01T20:06:53.384Z,99696.84
2018-05-01T20:09:22.607Z,99699.67
2018-05-01T20:11:51.870Z,99696.24
2018-05-01T20:14:21.194Z,99694.59
2018-05-01T20:16:51.304Z,99691.89
2018-05-01T20:19:21.103Z,99695.28
2018-05-01T20:21:51.129Z,99687.87
2018-05-01T20:24:21.155Z,99696.41
2018-05-01T20:26:50.478Z,99694.27
2018-05-01T20:29:19.675Z,99692.92
2018-05-01T20:31:49.688Z,99698.52
2018-05-01T20:34:18.992Z,99697.59
2018-05-01T20:36:49.165Z,99700.38
2018-05-01T20:39:18.361Z,99703.19
2018-05-01T20:41:48.359Z,99705.11
2018-05-01T20:44:17.657Z,99704.25
2018-05-01T20:46:47.007Z,99707.20
2018-05-01T20:49:16.217Z,99710.31
2018-05-01T20:51:45.481Z,99715.77
2018-05-01T20:54:15.457Z,99715.05
2018-05-01T20:56:44.666Z,99715.61
2018-05-01T20:59:13.857Z,99721.36
2018-05-01T21:01:43.125Z,99721.13
2018-05-01T21:04:12.289Z,99726.55
2018-05-01T21:06:41.574Z,99726.22
2018-05-01T21:09:10.735Z,99729.98
2018-05-01T21:11:39.947Z,99726.95
2018-05-01T21:14:09.219Z,99734.84
2018-05-01T21:16:38.625Z,99736.20
2018-05-01T21:19:07.845Z,99737.59
2018-05-01T21:21:37.681Z,99737.27
2018-05-01T21:24:07.668Z,99736.00
2018-05-01T21:26:37.093Z,99735.74
2018-05-01T21:29:06.351Z,99732.44
2018-05-01T21:31:35.561Z,99733.63
2018-05-01T21:34:04.838Z,99729.89
2018-05-01T21:36:34.072Z,99733.95
2018-05-01T21:39:03.245Z,99734.44
2018-05-01T21:41:33.312Z,99728.48
2018-05-01T21:44:03.331Z,99726.97
2018-05-01T21:46:33.304Z,99730.16
2018-05-01T21:49:02.601Z,99730.09
2018-05-01T21:51:31.963Z,99733.12
2018-05-01T21:54:01.188Z,99730.44
2018-05-01T21:56:30.809Z,99740.14
2018-05-01T21:59:00.051Z,99736.49
2018-05-01T22:01:30.048Z,99738.23
2018-05-01T22:03:59.991Z,99738.78
2018-05-01T22:06:29.964Z,99739.27
2018-05-01T22:08:59.171Z,99736.33
2018-05-01T22:11:28.376Z,99738.86
2018-05-01T22:13:57.856Z,99732.11
2018-05-01T22:16:27.086Z,99735.67
2018-05-01T22:18:57.066Z,99730.74
2018-05-01T22:21:26.426Z,99730.84
2018-05-01T22:23:55.613Z,99735.06
2018-05-01T22:26:24.831Z,99732.72
2018-05-01T22:28:54.196Z,99734.00
2018-05-01T22:31:24.950Z,99740.28
2018-05-01T22:33:54.181Z,99737.42
2018-05-01T22:36:24.366Z,99738.86
2018-05-01T22:38:53.666Z,99740.34
2018-05-01T22:41:22.865Z,99744.49
2018-05-01T22:43:52.838Z,99740.92
2018-05-01T22:46:23.023Z,99743.90
2018-05-01T22:48:52.249Z,99747.54
2018-05-01T22:51:21.467Z,99735.45
2018-05-01T22:53:50.712Z,99741.47
2018-05-01T22:56:19.905Z,99731.22
2018-05-01T22:58:49.116Z,99731.05
2018-05-01T23:01:18.324Z,99726.67
2018-05-01T23:03:48.475Z,99727.07
2018-05-01T23:06:17.662Z,99733.33
2018-05-01T23:08:46.913Z,99730.45
2018-05-01T23:11:16.111Z,99732.28
2018-05-01T23:13:45.317Z,99737.28
2018-05-01T23:16:14.517Z,99729.42
2018-05-01T23:18:44.696Z,99729.08
2018-05-01T23:21:13.878Z,99725.27
2018-05-01T23:23:43.870Z,99726.98
2018-05-01T23:26:13.100Z,99723.78
2018-05-01T23:28:42.279Z,99717.66
2018-05-01T23:31:11.899Z,99718.30
2018-05-01T23:33:41.113Z,99719.41
2018-05-01T23:36:11.091Z,99718.91
2018-05-01T23:38:40.299Z,99716.76
2018-05-01T23:41:09.527Z,99722.56
2018-05-01T23:43:38.724Z,99719.41
2018-05-01T23:46:08.717Z,99716.55
2018-05-01T23:48:38.693Z,99711.91
2018-05-01T23:51:08.880Z,99717.72
2018-05-01T23:53:38.811Z,99716.02
2018-05-01T23:56:08.025Z,99705.81
2018-05-01T23:58:37.297Z,99699.86
